createdAt,value
2022-09-04T00:01:45.178Z,101669.19
2022-09-04T00:04:55.679Z,101666.44
2022-09-04T00:08:19.654Z,101674.44
2022-09-04T00:11:45.968Z,101678.22
2022-09-04T00:14:58.518Z,101672.97
2022-09-04T00:18:09.993Z,101682.63
2022-09-04T00:21:14.756Z,101685.19
2022-09-04T00:24:20.277Z,101677.63
2022-09-04T00:27:28.076Z,101680.53
2022-09-04T00:30:34.667Z,101686.44
2022-09-04T00:34:20.202Z,101687.69
2022-09-04T00:37:28.250Z,101675.06
2022-09-04T00:40:35.877Z,101674.66
2022-09-04T00:43:52.721Z,101693.59
2022-09-04T00:47:16.457Z,101693.38
2022-09-04T00:50:42.622Z,101697.19
2022-09-04T00:54:04.982Z,101699.94
2022-09-04T00:57:34.855Z,101702.66
2022-09-04T01:00:36.845Z,101694.03
2022-09-04T01:04:03.786Z,101699.72
2022-09-04T01:07:06.439Z,101696.97
2022-09-04T01:10:35.708Z,101700.75
2022-09-04T01:13:51.079Z,101701.38
2022-09-04T01:16:53.146Z,101690.66
2022-09-04T01:20:47.159Z,101704.94
2022-09-04T01:24:18.307Z,101699.47
2022-09-04T01:27:28.925Z,101692.56
2022-09-04T01:30:57.539Z,101696.13
2022-09-04T01:34:36.960Z,101698.03
2022-09-04T01:37:50.217Z,101697.19
2022-09-04T01:41:20.464Z,101696.31
2022-09-04T01:44:23.637Z,101699.28
2022-09-04T01:47:49.473Z,101700.97
2022-09-04T01:50:58.478Z,101705.59
2022-09-04T01:54:10.568Z,101706.84
2022-09-04T01:57:41.232Z,101709.59
2022-09-04T02:01:10.663Z,101693.78
2022-09-04T02:04:28.004Z,101699.06
2022-09-04T02:07:38.691Z,101700.13
2022-09-04T02:10:56.974Z,101697.81
2022-09-04T02:14:44.141Z,101690.84
2022-09-04T02:18:11.803Z,101688.09
2022-09-04T02:21:45.127Z,101693.38
2022-09-04T02:25:00.599Z,101686.66
2022-09-04T02:28:14.629Z,101698.63
2022-09-04T02:31:29.837Z,101695.47
2022-09-04T02:34:45.175Z,101698.03
2022-09-04T02:37:58.589Z,101679.03
2022-09-04T02:41:30.478Z,101691.28
2022-09-04T02:44:53.977Z,101695.91
2022-09-04T02:48:17.589Z,101700.53
2022-09-04T02:51:26.567Z,101694.44
2022-09-04T02:55:05.483Z,101696.97
2022-09-04T02:58:39.815Z,101690.66
2022-09-04T03:01:59.589Z,101692.31
2022-09-04T03:05:23.375Z,101691.72
2022-09-04T03:08:37.861Z,101696.78
2022-09-04T03:11:50.859Z,101699.50
2022-09-04T03:15:05.032Z,101697.81
2022-09-04T03:18:16.799Z,101704.13
2022-09-04T03:21:49.856Z,101699.50
2022-09-04T03:25:45.935Z,101694.22
2022-09-04T03:29:16.355Z,101702.44
2022-09-04T03:32:30.871Z,101703.06
2022-09-04T03:36:03.289Z,101694.59
2022-09-04T03:39:14.425Z,101710.44
2022-09-04T03:42:31.628Z,101715.06
2022-09-04T03:45:55.282Z,101717.19
2022-09-04T03:49:06.399Z,101710.66
2022-09-04T03:52:18.335Z,101711.66
2022-09-04T03:55:57.766Z,101727.91
2022-09-04T03:59:05.729Z,101720.34
2022-09-04T04:02:24.713Z,101733.19
2022-09-04T04:06:00.513Z,101732.53
2022-09-04T04:09:11.957Z,101738.63
2022-09-04T04:12:43.829Z,101743.25
2022-09-04T04:16:04.587Z,101742.19
2022-09-04T04:19:18.750Z,101752.28
2022-09-04T04:22:33.400Z,101754.19
2022-09-04T04:25:38.924Z,101752.28
2022-09-04T04:29:02.890Z,101757.38
2022-09-04T04:32:55.911Z,101757.81
2022-09-04T04:36:46.140Z,101748.31
2022-09-04T04:40:01.169Z,101759.06
2022-09-04T04:43:13.084Z,101750.44
2022-09-04T04:46:42.620Z,101752.13
2022-09-04T04:50:08.406Z,101759.50
2022-09-04T04:53:31.563Z,101757.19
2022-09-04T04:57:05.326Z,101761.59
2022-09-04T05:00:22.788Z,101770.66
2022-09-04T05:03:33.473Z,101771.28
2022-09-04T05:06:47.628Z,101777.19
2022-09-04T05:10:18.977Z,101705.31
2022-09-04T05:13:33.900Z,101786.88
2022-09-04T05:16:55.778Z,101786.66
2022-09-04T05:20:28.649Z,101795.28
2022-09-04T05:23:45.995Z,101793.00
2022-09-04T05:27:26.789Z,101790.88
2022-09-04T05:30:40.506Z,101791.28
2022-09-04T05:33:51.831Z,101789.59
2022-09-04T05:37:21.484Z,101792.56
2022-09-04T05:40:44.109Z,101792.50
2022-09-04T05:43:58.275Z,101795.25
2022-09-04T05:47:09.420Z,101796.72
2022-09-04T05:50:37.071Z,101807.03
2022-09-04T05:54:03.460Z,101804.47
2022-09-04T05:57:47.233Z,101806.16
2022-09-04T06:01:08.914Z,101798.16
2022-09-04T06:04:35.824Z,101816.34
2022-09-04T06:07:52.012Z,101821.59
2022-09-04T06:10:59.986Z,101818.88
2022-09-04T06:14:26.853Z,101824.34
2022-09-04T06:17:52.161Z,101821.38
2022-09-04T06:21:07.895Z,101818.81
2022-09-04T06:24:44.816Z,101815.91
2022-09-04T06:28:08.265Z,101825.22
2022-09-04T06:31:19.914Z,101826.06
2022-09-04T06:34:54.719Z,101825.66
2022-09-04T06:38:36.741Z,101816.78
2022-09-04T06:42:07.656Z,101817.22
2022-09-04T06:45:24.853Z,101822.28
2022-09-04T06:48:45.613Z,101819.31
2022-09-04T06:52:20.408Z,101818.25
2022-09-04T06:55:37.883Z,101821.22
2022-09-04T06:59:04.375Z,101819.53
2022-09-04T07:02:26.175Z,101820.78
2022-09-04T07:05:31.227Z,101825.84
2022-09-04T07:08:40.333Z,101817.13
2022-09-04T07:12:01.178Z,101825.19
2022-09-04T07:15:41.176Z,101824.97
2022-09-04T07:19:01.593Z,101825.81
2022-09-04T07:22:18.119Z,101832.38
2022-09-04T07:25:34.060Z,101825.66
2022-09-04T07:29:13.050Z,101837.22
2022-09-04T07:32:20.313Z,101842.06
2022-09-04T07:35:53.312Z,101835.53
2022-09-04T07:39:26.540Z,101828.31
2022-09-04T07:42:39.033Z,101848.97
2022-09-04T07:45:56.757Z,101848.75
2022-09-04T07:49:13.991Z,101854.28
2022-09-04T07:52:30.054Z,101856.38
2022-09-04T07:55:47.007Z,101852.16
2022-09-04T07:59:26.723Z,101854.03
2022-09-04T08:03:06.125Z,101854.66
2022-09-04T08:06:25.056Z,101865.84
2022-09-04T08:09:43.433Z,101862.25
2022-09-04T08:12:56.544Z,101856.38
2022-09-04T08:16:23.486Z,101860.41
2022-09-04T08:19:25.502Z,101865.44
2022-09-04T08:22:54.499Z,101855.34
2022-09-04T08:26:01.514Z,101850.91
2022-09-04T08:29:35.817Z,101861.63
2022-09-04T08:33:05.682Z,101858.03
2022-09-04T08:36:13.355Z,101857.41
2022-09-04T08:40:01.480Z,101851.31
2022-09-04T08:43:16.271Z,101848.34
2022-09-04T08:46:49.364Z,101852.13
2022-09-04T08:50:25.781Z,101838.47
2022-09-04T08:54:05.381Z,101854.50
2022-09-04T08:57:25.933Z,101837.84
2022-09-04T09:00:38.900Z,101827.72
2022-09-04T09:04:12.146Z,101840.59
2022-09-04T09:07:17.046Z,101836.78
2022-09-04T09:10:37.806Z,101827.97
2022-09-04T09:14:01.810Z,101837.66
2022-09-04T09:17:21.529Z,101830.28
2022-09-04T09:20:53.062Z,101825.88
2022-09-04T09:24:13.007Z,101826.69
2022-09-04T09:27:36.444Z,101827.53
2022-09-04T09:31:11.133Z,101831.75
2022-09-04T09:34:31.570Z,101826.47
2022-09-04T09:38:00.037Z,101826.25
2022-09-04T09:41:10.451Z,101822.28
2022-09-04T09:44:27.545Z,101822.06
2022-09-04T09:47:56.898Z,101829.41
2022-09-04T09:51:23.947Z,101825.00
2022-09-04T09:54:42.060Z,101824.59
2022-09-04T09:58:21.294Z,101818.28
2022-09-04T10:01:26.301Z,101825.00
2022-09-04T10:04:49.327Z,101817.44
2022-09-04T10:08:03.347Z,101823.75
2022-09-04T10:11:23.961Z,101805.19
2022-09-04T10:14:47.808Z,101807.94
2022-09-04T10:18:15.008Z,101803.72
2022-09-04T10:21:38.303Z,101808.59
2022-09-04T10:24:43.482Z,101802.47
2022-09-04T10:28:16.918Z,101811.94
2022-09-04T10:31:53.477Z,101814.66
2022-09-04T10:35:33.239Z,101814.47
2022-09-04T10:39:03.377Z,101811.09
2022-09-04T10:42:20.083Z,101808.38
2022-09-04T10:45:48.139Z,101818.28
2022-09-04T10:48:56.809Z,101795.09
2022-09-04T10:52:05.627Z,101801.63
2022-09-04T10:55:26.808Z,101803.09
2022-09-04T10:58:40.622Z,101810.69
2022-09-04T11:02:14.003Z,101802.69
2022-09-04T11:05:31.853Z,101802.28
2022-09-04T11:08:55.367Z,101809.44
2022-09-04T11:12:09.731Z,101803.53
2022-09-04T11:15:23.555Z,101799.31
2022-09-04T11:18:53.676Z,101790.88
2022-09-04T11:21:59.145Z,101787.06
2022-09-04T11:25:07.412Z,101788.34
2022-09-04T11:28:46.887Z,101779.91
2022-09-04T11:32:15.799Z,101774.66
2022-09-04T11:35:36.702Z,101778.47
2022-09-04T11:38:44.682Z,101780.34
2022-09-04T11:42:20.546Z,101768.97
2022-09-04T11:46:02.559Z,101764.34
2022-09-04T11:49:31.276Z,101777.16
2022-09-04T11:52:47.766Z,101775.31
2022-09-04T11:56:11.208Z,101781.63
2022-09-04T12:00:12.430Z,101769.59
2022-09-04T12:03:36.565Z,101780.78
2022-09-04T12:07:12.625Z,101780.56
2022-09-04T12:10:43.485Z,101766.66
2022-09-04T12:14:23.294Z,101775.72
2022-09-04T12:17:32.123Z,101778.03
2022-09-04T12:20:48.166Z,101778.22
2022-09-04T12:24:08.508Z,101786.88
2022-09-04T12:27:38.059Z,101777.59
2022-09-04T12:30:55.382Z,101787.75
2022-09-04T12:34:25.643Z,101767.28
2022-09-04T12:37:54.099Z,101764.13
2022-09-04T12:41:03.099Z,101757.59
2022-09-04T12:44:08.770Z,101758.00
2022-09-04T12:47:43.586Z,101760.13
2022-09-04T12:51:04.910Z,101776.75
2022-09-04T12:54:25.135Z,101759.06
2022-09-04T12:57:37.252Z,101759.50
2022-09-04T13:00:51.281Z,101767.94
2022-09-04T13:04:06.226Z,101767.28
2022-09-04T13:07:58.069Z,101753.59
2022-09-04T13:11:16.615Z,101757.38
2022-09-04T13:14:34.841Z,101756.97
2022-09-04T13:18:31.714Z,101765.19
2022-09-04T13:21:56.765Z,101762.22
2022-09-04T13:25:02.842Z,101756.31
2022-09-04T13:28:38.525Z,101754.44
2022-09-04T13:31:43.890Z,101754.84
2022-09-04T13:34:52.217Z,101764.34
2022-09-04T13:38:06.189Z,101762.03
2022-09-04T13:41:30.518Z,101751.91
2022-09-04T13:44:51.709Z,101760.97
2022-09-04T13:48:00.674Z,101751.50
2022-09-04T13:51:13.882Z,101748.75
2022-09-04T13:54:26.028Z,101738.00
2022-09-04T13:57:33.266Z,101750.00
2022-09-04T14:00:37.911Z,101752.34
2022-09-04T14:03:49.884Z,101748.13
2022-09-04T14:07:07.201Z,101753.16
2022-09-04T14:10:15.258Z,101753.16
2022-09-04T14:13:38.015Z,101756.13
2022-09-04T14:16:41.901Z,101764.13
2022-09-04T14:20:02.336Z,101761.38
2022-09-04T14:23:39.647Z,101757.38
2022-09-04T14:27:09.501Z,101761.38
2022-09-04T14:30:17.229Z,101760.31
2022-09-04T14:33:50.256Z,101759.47
2022-09-04T14:37:40.246Z,101753.81
2022-09-04T14:41:10.947Z,101748.09
2022-09-04T14:44:57.491Z,101749.59
2022-09-04T14:48:07.703Z,101752.34
2022-09-04T14:51:17.557Z,101751.06
2022-09-04T14:54:30.753Z,101744.13
2022-09-04T14:57:44.514Z,101749.19
2022-09-04T15:00:57.446Z,101746.03
2022-09-04T15:04:19.186Z,101748.94
2022-09-04T15:07:30.926Z,101741.78
2022-09-04T15:10:36.404Z,101745.59
2022-09-04T15:13:51.124Z,101739.91
2022-09-04T15:17:00.292Z,101739.47
2022-09-04T15:20:11.590Z,101729.38
2022-09-04T15:23:31.352Z,101733.59
2022-09-04T15:26:46.877Z,101734.66
2022-09-04T15:29:52.131Z,101744.34
2022-09-04T15:33:23.906Z,101745.38
2022-09-04T15:36:27.810Z,101740.97
2022-09-04T15:39:39.895Z,101734.00
2022-09-04T15:42:47.289Z,101741.81
2022-09-04T15:45:52.498Z,101737.81
2022-09-04T15:49:21.553Z,101746.66
2022-09-04T15:52:29.851Z,101742.22
2022-09-04T15:55:35.851Z,101712.97
2022-09-04T15:58:57.940Z,101747.28
2022-09-04T16:02:17.240Z,101749.81
2022-09-04T16:05:25.272Z,101747.91
2022-09-04T16:08:37.254Z,101747.69
2022-09-04T16:11:46.952Z,101734.88
2022-09-04T16:15:00.254Z,101748.97
2022-09-04T16:18:15.704Z,101751.06
2022-09-04T16:21:43.173Z,101752.97
2022-09-04T16:24:54.141Z,101750.00
2022-09-04T16:28:15.237Z,101758.66
2022-09-04T16:31:31.488Z,101759.72
2022-09-04T16:34:40.461Z,101757.38
2022-09-04T16:37:51.581Z,101758.66
2022-09-04T16:41:02.667Z,101761.81
2022-09-04T16:44:11.247Z,101767.72
2022-09-04T16:47:25.642Z,101766.25
2022-09-04T16:50:53.803Z,101736.53
2022-09-04T16:54:23.209Z,101768.16
2022-09-04T16:57:46.095Z,101769.81
2022-09-04T17:01:14.300Z,101770.03
2022-09-04T17:04:28.846Z,101785.41
2022-09-04T17:07:37.756Z,101779.09
2022-09-04T17:10:52.793Z,101795.28
2022-09-04T17:14:08.892Z,101799.53
2022-09-04T17:17:30.221Z,101799.53
2022-09-04T17:24:54.341Z,101803.31
2022-09-04T17:29:08.242Z,101810.88
2022-09-04T17:29:10.933Z,101814.47
2022-09-04T17:31:45.510Z,101813.63
2022-09-04T17:40:36.878Z,101821.00
2022-09-04T17:40:53.112Z,101822.69
2022-09-04T17:42:19.989Z,101830.06
2022-09-04T17:45:34.467Z,101833.84
2022-09-04T17:48:42.692Z,101835.75
2022-09-04T17:51:57.612Z,101837.00
2022-09-04T17:55:13.875Z,101842.25
2022-09-04T17:58:28.777Z,101843.53
2022-09-04T18:01:39.495Z,101848.16
2022-09-04T18:04:54.003Z,101853.63
2022-09-04T18:08:11.383Z,101846.03
2022-09-04T18:11:37.150Z,101855.53
2022-09-04T18:15:27.605Z,101851.31
2022-09-04T18:18:40.217Z,101859.09
2022-09-04T18:22:25.289Z,101847.94
2022-09-04T18:25:24.793Z,101864.56
2022-09-04T18:28:37.973Z,101859.09
2022-09-04T18:37:13.274Z,101861.84
2022-09-04T18:37:26.210Z,101863.13
2022-09-04T18:39:13.393Z,101869.44
2022-09-04T18:50:03.611Z,101857.63
2022-09-04T18:50:33.450Z,101862.25
2022-09-04T18:50:35.752Z,101871.53
2022-09-04T18:52:55.414Z,101872.56
2022-09-04T18:56:05.533Z,101871.09
2022-09-04T18:59:38.516Z,101873.81
2022-09-04T19:02:53.895Z,101870.47
2022-09-04T19:06:05.632Z,101865.84
2022-09-04T19:09:14.943Z,101859.09
2022-09-04T19:12:21.593Z,101867.69
2022-09-04T19:15:36.680Z,101875.22
2022-09-04T19:18:43.845Z,101865.78
2022-09-04T19:22:01.604Z,101867.47
2022-09-04T19:25:16.687Z,101852.50
2022-09-04T19:28:27.618Z,101861.59
2022-09-04T19:31:39.522Z,101863.50
2022-09-04T19:34:44.678Z,101856.97
2022-09-04T19:43:31.805Z,101859.28
2022-09-04T19:46:08.364Z,101856.53
2022-09-04T19:46:15.286Z,101851.91
2022-09-04T19:48:49.217Z,101860.31
2022-09-04T19:53:30.089Z,101852.94
2022-09-04T19:56:20.449Z,101856.53
2022-09-04T19:59:45.413Z,101862.22
2022-09-04T20:03:29.962Z,101867.69
2022-09-04T20:07:02.810Z,101873.94
2022-09-04T20:10:17.364Z,101867.63
2022-09-04T20:13:37.687Z,101879.00
2022-09-04T20:16:59.433Z,101872.69
2022-09-04T20:20:06.115Z,101881.75
2022-09-04T20:23:33.781Z,101868.03
2022-09-04T20:26:56.617Z,101870.16
2022-09-04T20:30:04.924Z,101877.81
2022-09-04T20:33:14.007Z,101890.22
2022-09-04T20:36:19.986Z,101901.16
2022-09-04T20:39:59.559Z,101898.63
2022-09-04T20:43:31.934Z,101883.44
2022-09-04T20:52:09.139Z,101893.81
2022-09-04T20:52:52.230Z,101894.84
2022-09-04T20:54:07.605Z,101885.78
2022-09-04T21:00:02.674Z,101881.97
2022-09-04T21:03:16.997Z,101893.50
2022-09-04T21:04:42.666Z,101891.63
2022-09-04T21:07:52.608Z,101901.13
2022-09-04T21:11:38.788Z,101900.69
2022-09-04T21:14:51.139Z,101895.22
2022-09-04T21:18:18.127Z,101895.22
2022-09-04T21:21:52.591Z,101903.28
2022-09-04T21:25:30.258Z,101897.09
2022-09-04T21:28:50.631Z,101904.28
2022-09-04T21:32:26.687Z,101900.69
2022-09-04T21:35:47.857Z,101897.13
2022-09-04T21:38:52.155Z,101893.75
2022-09-04T21:42:16.745Z,101899.41
2022-09-04T21:45:28.718Z,101897.75
2022-09-04T21:48:30.761Z,101895.22
2022-09-04T21:52:08.066Z,101901.53
2022-09-04T22:00:32.062Z,101897.72
2022-09-04T22:02:42.251Z,101898.13
2022-09-04T22:03:31.457Z,101906.13
2022-09-04T22:10:49.491Z,101910.97
2022-09-04T22:13:37.744Z,101891.84
2022-09-04T22:14:25.644Z,101909.94
2022-09-04T22:17:50.749Z,101918.13
2022-09-04T22:21:28.981Z,101906.13
2022-09-04T22:24:58.475Z,101909.09
2022-09-04T22:28:48.938Z,101903.84
2022-09-04T22:32:20.488Z,101905.91
2022-09-04T22:35:52.893Z,101901.28
2022-09-04T22:39:02.752Z,101895.59
2022-09-04T22:42:42.458Z,101906.97
2022-09-04T22:46:11.637Z,101907.59
2022-09-04T22:49:29.354Z,101905.50
2022-09-04T22:52:46.595Z,101903.63
2022-09-04T22:56:22.821Z,101902.56
2022-09-04T22:59:26.964Z,101906.16
2022-09-04T23:08:12.223Z,101906.78
2022-09-04T23:13:56.672Z,101905.94
2022-09-04T23:13:59.659Z,101904.28
2022-09-04T23:17:01.851Z,101901.09
2022-09-04T23:26:30.936Z,101909.75
2022-09-04T23:26:45.673Z,101905.06
2022-09-04T23:27:37.903Z,101900.69
2022-09-04T23:30:50.599Z,101917.94
2022-09-04T23:34:07.910Z,101910.78
2022-09-04T23:37:38.575Z,101914.56
2022-09-04T23:41:15.909Z,101919.19
2022-09-04T23:44:36.096Z,101912.44
2022-09-04T23:48:08.788Z,101910.97
2022-09-04T23:51:26.593Z,101911.78
2022-09-04T23:54:45.943Z,101912.00
2022-09-04T23:57:57.063Z,101912.19
